Main page
METAR-TAF:

METAR-TAF

Airports :

Castres–Mazamet Airport

Castres, France

latitude: 43-33-25N, longitude: 2-17-21E, elevation: 239 m

Current weather observation

The report was made 5 minutes ago, at 19:30 UTC
Wind 7 kt from the West, varying between West and Northwest
Temperature 2°C
Humidity 80%
Pressure 1032 hPa
Visibility 10 km or more
no clouds below 1500 m and no cumulonimbus

METAR: LFCK 211930Z AUTO 28007KT 260V320 CAVOK 02/M01 Q1032 NOSIG

Time: 20:35 (19:35 UTC)

Forecast

The report was made 2 hours and 35 minutes ago, at 17:00 UTC
Forecast valid from 21 at 18 UTC to 22 at 03 UTC
Wind 5 kt from the West
Visibility 10 km or more
no clouds below 1500 m and no cumulonimbus
Becoming
from 21 at 21 UTC to 21 at 23 UTC
Wind 3 kt from variable directions

TAF: LFCK 211700Z 2118/2203 26005KT CAVOK BECMG 2121/2123 VRB03KT

Weather observations and forecasts of more than 4000 airports (METAR and TAF reports).

The available stations are represented by yellow and red dots on the map.

Hover mouse over dot to see the name of the station.

Then click to see weather observations and forecasts.

To change the map : click on the green buttons with a black cross to zoom in, on the green button with a dash to zoom out, or on the green arrows for adjacent maps.


METAR-TAF: